createdAt,value
2018-07-08T00:01:54.775Z,78.76
2018-07-08T00:04:23.591Z,79.39
2018-07-08T00:06:56.486Z,78.70
2018-07-08T00:09:26.022Z,79.11
2018-07-08T00:11:55.363Z,79.96
2018-07-08T00:14:24.954Z,79.83
2018-07-08T00:16:54.659Z,79.66
2018-07-08T00:19:24.307Z,79.68
2018-07-08T00:21:53.160Z,79.57
2018-07-08T00:24:21.953Z,79.26
2018-07-08T00:26:51.980Z,79.61
2018-07-08T00:29:21.401Z,80.42
2018-07-08T00:31:50.999Z,79.80
2018-07-08T00:34:19.875Z,81.05
2018-07-08T00:36:49.130Z,80.61
2018-07-08T00:39:18.545Z,80.53
2018-07-08T00:41:47.366Z,80.25
2018-07-08T00:44:16.254Z,80.80
2018-07-08T00:46:45.068Z,81.07
2018-07-08T00:49:14.046Z,81.11
2018-07-08T00:51:43.763Z,80.76
2018-07-08T00:54:12.592Z,81.42
2018-07-08T00:56:42.230Z,82.26
2018-07-08T00:59:12.166Z,82.32
2018-07-08T01:01:41.024Z,82.65
2018-07-08T01:04:09.874Z,82.59
2018-07-08T01:06:38.747Z,82.36
2018-07-08T01:09:08.175Z,81.84
2018-07-08T01:11:37.420Z,81.45
2018-07-08T01:14:08.098Z,82.45
2018-07-08T01:16:37.811Z,83.05
2018-07-08T01:19:07.413Z,82.32
2018-07-08T01:21:36.362Z,83.10
2018-07-08T01:24:05.781Z,82.64
2018-07-08T01:26:36.230Z,82.99
2018-07-08T01:29:06.183Z,83.80
2018-07-08T01:31:35.986Z,83.75
2018-07-08T01:34:05.162Z,83.35
2018-07-08T01:36:34.156Z,82.13
2018-07-08T01:39:04.331Z,82.22
2018-07-08T01:41:33.363Z,83.05
2018-07-08T01:44:02.141Z,83.47
2018-07-08T01:46:31.022Z,83.44
2018-07-08T01:48:59.839Z,83.39
2018-07-08T01:51:29.604Z,83.37
2018-07-08T01:53:58.426Z,82.53
2018-07-08T01:56:27.843Z,82.38
2018-07-08T01:58:56.754Z,81.89
2018-07-08T02:01:25.995Z,82.99
2018-07-08T02:03:54.800Z,83.34
2018-07-08T02:06:23.638Z,83.40
2018-07-08T02:08:53.187Z,82.95
2018-07-08T02:11:22.758Z,82.32
2018-07-08T02:13:54.293Z,83.16
2018-07-08T02:16:24.565Z,82.71
2018-07-08T02:18:54.019Z,82.51
2018-07-08T02:21:23.822Z,82.43
2018-07-08T02:23:53.489Z,83.47
2018-07-08T02:26:23.032Z,84.09
2018-07-08T02:28:51.892Z,83.83
2018-07-08T02:31:21.922Z,83.58
2018-07-08T02:33:50.784Z,83.49
2018-07-08T02:36:19.594Z,83.38
2018-07-08T02:38:49.326Z,82.91
2018-07-08T02:41:18.199Z,82.62
2018-07-08T02:43:47.034Z,82.99
2018-07-08T02:46:15.905Z,82.69
2018-07-08T02:48:44.774Z,81.83
2018-07-08T02:51:13.720Z,81.54
2018-07-08T02:53:43.383Z,81.85
2018-07-08T02:56:13.067Z,81.27
2018-07-08T02:58:41.863Z,80.58
2018-07-08T03:01:10.655Z,78.64
2018-07-08T03:03:39.438Z,77.07
2018-07-08T03:06:08.251Z,74.16
2018-07-08T03:08:37.762Z,70.11
2018-07-08T03:11:06.881Z,67.49
2018-07-08T03:13:37.067Z,65.18
2018-07-08T03:16:07.431Z,62.29
2018-07-08T03:18:37.492Z,60.16
2018-07-08T03:21:07.427Z,60.42
2018-07-08T03:23:37.262Z,57.40
2018-07-08T03:26:07.008Z,57.12
2018-07-08T03:28:35.898Z,55.86
2018-07-08T03:31:05.895Z,55.60
2018-07-08T03:33:34.935Z,52.36
2018-07-08T03:36:03.749Z,53.15
2018-07-08T03:38:33.688Z,50.87
2018-07-08T03:41:02.487Z,51.30
2018-07-08T03:43:31.227Z,49.40
2018-07-08T03:45:59.982Z,49.83
2018-07-08T03:48:28.742Z,49.45
2018-07-08T03:50:57.772Z,48.67
2018-07-08T03:53:27.397Z,47.14
2018-07-08T03:55:56.782Z,46.96
2018-07-08T03:58:25.590Z,46.08
2018-07-08T04:00:54.363Z,46.35
2018-07-08T04:03:23.182Z,46.54
2018-07-08T04:05:52.660Z,45.17
2018-07-08T04:08:22.454Z,44.01
2018-07-08T04:10:51.990Z,43.57
2018-07-08T04:13:20.845Z,45.18
2018-07-08T04:15:51.102Z,44.79
2018-07-08T04:18:20.689Z,43.16
2018-07-08T04:20:49.504Z,43.15
2018-07-08T04:23:19.083Z,44.16
2018-07-08T04:25:48.825Z,44.94
2018-07-08T04:28:17.586Z,46.99
2018-07-08T04:30:47.011Z,48.44
2018-07-08T04:33:15.759Z,50.81
2018-07-08T04:35:44.538Z,49.92
2018-07-08T04:38:14.058Z,50.71
2018-07-08T04:40:42.810Z,51.11
2018-07-08T04:43:11.659Z,52.49
2018-07-08T04:45:40.552Z,51.51
2018-07-08T04:48:09.314Z,52.16
2018-07-08T04:50:38.361Z,51.40
2018-07-08T04:53:08.051Z,51.97
2018-07-08T04:55:37.794Z,53.43
2018-07-08T04:58:06.936Z,53.03
2018-07-08T05:00:36.451Z,52.53
2018-07-08T05:03:05.603Z,52.78
2018-07-08T05:05:36.043Z,53.28
2018-07-08T05:08:05.934Z,52.04
2018-07-08T05:10:35.793Z,52.84
2018-07-08T05:13:05.122Z,54.36
2018-07-08T05:15:35.167Z,53.99
2018-07-08T05:18:04.846Z,51.53
2018-07-08T05:20:33.638Z,51.48
2018-07-08T05:23:03.865Z,51.94
2018-07-08T05:25:33.525Z,51.97
2018-07-08T05:28:02.622Z,51.19
2018-07-08T05:30:32.451Z,51.85
2018-07-08T05:33:01.251Z,52.44
2018-07-08T05:35:30.032Z,52.96
2018-07-08T05:38:00.383Z,52.97
2018-07-08T05:40:29.201Z,52.96
2018-07-08T05:42:57.938Z,52.73
2018-07-08T05:45:26.711Z,51.74
2018-07-08T05:47:55.493Z,51.91
2018-07-08T05:50:24.541Z,51.33
2018-07-08T05:52:54.508Z,50.87
2018-07-08T05:55:23.459Z,50.77
2018-07-08T05:57:53.039Z,51.34
2018-07-08T06:00:21.837Z,50.78
2018-07-08T06:02:50.673Z,51.09
2018-07-08T06:05:19.423Z,51.53
2018-07-08T06:07:48.774Z,51.42
2018-07-08T06:10:18.058Z,50.94
2018-07-08T06:12:46.802Z,50.14
2018-07-08T06:15:16.314Z,50.02
2018-07-08T06:17:45.809Z,50.58
2018-07-08T06:20:15.108Z,50.13
2018-07-08T06:22:44.596Z,49.88
2018-07-08T06:25:14.669Z,50.10
2018-07-08T06:27:43.455Z,48.01
2018-07-08T06:30:13.394Z,48.23
2018-07-08T06:32:42.151Z,46.75
2018-07-08T06:35:11.032Z,47.20
2018-07-08T06:37:40.498Z,45.81
2018-07-08T06:40:09.287Z,47.07
2018-07-08T06:42:38.146Z,48.07
2018-07-08T06:45:07.376Z,48.46
2018-07-08T06:47:36.618Z,46.37
2018-07-08T06:50:05.786Z,47.59
2018-07-08T06:52:36.320Z,46.80
2018-07-08T06:55:05.586Z,47.77
2018-07-08T06:57:35.699Z,47.11
2018-07-08T07:00:05.303Z,46.49
2018-07-08T07:02:34.143Z,44.92
2018-07-08T07:05:02.974Z,45.23
2018-07-08T07:07:32.523Z,44.02
2018-07-08T07:10:01.896Z,45.23
2018-07-08T07:12:31.496Z,44.74
2018-07-08T07:15:01.070Z,45.07
2018-07-08T07:17:30.705Z,46.29
2018-07-08T07:20:00.265Z,44.28
2018-07-08T07:22:29.850Z,41.55
2018-07-08T07:24:59.549Z,42.63
2018-07-08T07:27:28.346Z,43.48
2018-07-08T07:29:57.142Z,43.58
2018-07-08T07:32:26.786Z,40.32
2018-07-08T07:34:55.554Z,38.29
2018-07-08T07:37:25.801Z,38.80
2018-07-08T07:39:54.603Z,38.65
2018-07-08T07:42:23.398Z,39.40
2018-07-08T07:44:52.242Z,38.68
2018-07-08T07:47:21.085Z,39.81
2018-07-08T07:49:49.939Z,39.99
2018-07-08T07:52:19.283Z,39.42
2018-07-08T07:54:48.062Z,40.41
2018-07-08T07:57:17.486Z,38.46
2018-07-08T07:59:46.290Z,38.88
2018-07-08T08:02:15.241Z,39.75
2018-07-08T08:04:44.007Z,38.54
2018-07-08T08:07:13.652Z,39.04
2018-07-08T08:09:43.011Z,39.60
2018-07-08T08:12:12.166Z,38.79
2018-07-08T08:14:41.561Z,38.83
2018-07-08T08:17:11.580Z,40.08
2018-07-08T08:19:41.376Z,38.90
2018-07-08T08:22:10.795Z,39.92
2018-07-08T08:24:39.587Z,38.87
2018-07-08T08:27:08.460Z,38.03
2018-07-08T08:29:37.795Z,38.84
2018-07-08T08:32:07.415Z,39.54
2018-07-08T08:34:52.779Z,37.59
2018-07-08T08:37:25.305Z,38.12
2018-07-08T08:39:55.296Z,36.20
2018-07-08T08:42:24.090Z,35.69
2018-07-08T08:44:54.366Z,36.89
2018-07-08T08:47:23.623Z,36.62
2018-07-08T08:49:53.076Z,35.59
2018-07-08T08:52:22.325Z,36.00
2018-07-08T08:54:51.319Z,35.98
2018-07-08T08:57:20.811Z,36.69
2018-07-08T08:59:49.619Z,36.50
2018-07-08T09:02:18.393Z,36.88
2018-07-08T09:04:47.262Z,37.22
2018-07-08T09:07:18.090Z,35.21
2018-07-08T09:09:47.468Z,36.35
2018-07-08T09:12:16.355Z,37.01
2018-07-08T09:14:46.196Z,36.51
2018-07-08T09:17:15.661Z,35.95
2018-07-08T09:19:45.039Z,36.06
2018-07-08T09:22:14.508Z,36.10
2018-07-08T09:24:43.291Z,36.66
2018-07-08T09:27:12.066Z,37.10
2018-07-08T09:29:40.872Z,35.93
2018-07-08T09:32:10.438Z,36.41
2018-07-08T09:34:39.165Z,35.69
2018-07-08T09:37:23.098Z,35.14
2018-07-08T09:39:51.868Z,35.78
2018-07-08T09:42:21.713Z,35.32
2018-07-08T09:44:50.474Z,35.92
2018-07-08T09:47:19.838Z,35.27
2018-07-08T09:49:48.650Z,36.66
2018-07-08T09:52:18.088Z,36.93
2018-07-08T09:54:46.822Z,35.87
2018-07-08T09:57:16.226Z,36.63
2018-07-08T09:59:44.974Z,34.54
2018-07-08T10:02:14.218Z,34.51
2018-07-08T10:04:43.014Z,35.94
2018-07-08T10:07:12.665Z,35.62
2018-07-08T10:09:42.183Z,35.98
2018-07-08T10:12:10.988Z,36.10
2018-07-08T10:14:40.691Z,35.45
2018-07-08T10:17:10.047Z,35.54
2018-07-08T10:19:39.821Z,35.93
2018-07-08T10:22:09.251Z,35.97
2018-07-08T10:24:38.049Z,34.44
2018-07-08T10:27:16.850Z,35.35
2018-07-08T10:29:45.588Z,33.66
2018-07-08T10:32:15.142Z,34.66
2018-07-08T10:34:44.010Z,33.75
2018-07-08T10:37:13.757Z,34.71
2018-07-08T10:39:43.043Z,33.85
2018-07-08T10:42:11.860Z,34.42
2018-07-08T10:44:40.590Z,32.46
2018-07-08T10:47:09.461Z,33.72
2018-07-08T10:49:38.199Z,33.09
2018-07-08T10:52:07.653Z,32.84
2018-07-08T10:54:37.214Z,32.05
2018-07-08T10:57:07.511Z,32.51
2018-07-08T10:59:36.886Z,31.34
2018-07-08T11:02:06.251Z,32.81
2018-07-08T11:04:36.109Z,32.41
2018-07-08T11:07:06.883Z,32.75
2018-07-08T11:09:39.620Z,32.97
2018-07-08T11:12:08.432Z,32.58
2018-07-08T11:14:38.034Z,31.29
2018-07-08T11:17:07.617Z,31.15
2018-07-08T11:19:38.657Z,30.64
2018-07-08T11:22:08.130Z,31.05
2018-07-08T11:24:37.286Z,31.17
2018-07-08T11:27:07.202Z,30.65
2018-07-08T11:29:36.506Z,30.53
2018-07-08T11:32:06.472Z,31.32
2018-07-08T11:34:38.684Z,31.03
2018-07-08T11:37:08.451Z,30.59
2018-07-08T11:39:37.263Z,30.67
2018-07-08T11:42:06.540Z,31.37
2018-07-08T11:44:35.850Z,31.37
2018-07-08T11:47:04.857Z,31.00
2018-07-08T11:49:34.789Z,31.13
2018-07-08T11:52:04.846Z,29.82
2018-07-08T11:54:34.272Z,30.05
2018-07-08T11:57:04.112Z,29.66
2018-07-08T11:59:32.953Z,30.73
2018-07-08T12:02:01.709Z,29.75
2018-07-08T12:04:30.526Z,27.89
2018-07-08T12:07:00.253Z,29.27
2018-07-08T12:09:29.699Z,29.40
2018-07-08T12:11:58.636Z,30.10
2018-07-08T12:14:28.205Z,29.30
2018-07-08T12:16:58.028Z,29.04
2018-07-08T12:19:27.444Z,29.17
2018-07-08T12:21:56.922Z,29.79
2018-07-08T12:24:25.852Z,30.08
2018-07-08T12:26:54.712Z,29.27
2018-07-08T12:29:23.492Z,30.13
2018-07-08T12:31:53.024Z,30.72
2018-07-08T12:34:21.784Z,29.64
2018-07-08T12:36:51.761Z,30.79
2018-07-08T12:39:20.916Z,30.32
2018-07-08T12:41:56.086Z,30.30
2018-07-08T12:44:24.867Z,30.34
2018-07-08T12:46:53.929Z,29.36
2018-07-08T12:49:22.736Z,30.00
2018-07-08T12:51:53.788Z,29.35
2018-07-08T12:54:22.540Z,30.22
2018-07-08T12:56:52.124Z,30.19
2018-07-08T12:59:20.877Z,29.79
2018-07-08T13:01:49.671Z,29.00
2018-07-08T13:04:18.450Z,29.68
2018-07-08T13:06:47.267Z,29.44
2018-07-08T13:09:16.710Z,29.80
2018-07-08T13:11:45.559Z,31.12
2018-07-08T13:14:15.423Z,31.70
2018-07-08T13:16:45.158Z,30.45
2018-07-08T13:19:14.979Z,29.82
2018-07-08T13:21:44.280Z,30.70
2018-07-08T13:24:13.085Z,30.10
2018-07-08T13:26:41.848Z,30.26
2018-07-08T13:29:10.882Z,30.80
2018-07-08T13:31:40.184Z,30.79
2018-07-08T13:34:10.260Z,29.67
2018-07-08T13:36:39.076Z,30.55
2018-07-08T13:39:09.995Z,30.04
2018-07-08T13:41:39.184Z,31.78
2018-07-08T13:44:08.088Z,31.05
2018-07-08T13:46:37.290Z,31.30
2018-07-08T13:49:06.591Z,30.83
2018-07-08T13:51:36.602Z,30.55
2018-07-08T13:54:06.471Z,29.70
2018-07-08T13:56:36.592Z,29.67
2018-07-08T13:59:05.813Z,30.17
2018-07-08T14:01:34.815Z,29.45
2018-07-08T14:04:03.747Z,29.45
2018-07-08T14:06:32.749Z,29.78
2018-07-08T14:09:02.471Z,30.82
2018-07-08T14:11:31.274Z,30.43
2018-07-08T14:14:01.091Z,29.80
2018-07-08T14:16:30.616Z,30.07
2018-07-08T14:19:00.175Z,30.41
2018-07-08T14:21:29.835Z,28.63
2018-07-08T14:23:58.683Z,29.41
2018-07-08T14:26:27.926Z,29.68
2018-07-08T14:28:56.928Z,28.57
2018-07-08T14:31:26.270Z,29.48
2018-07-08T14:33:55.012Z,29.47
2018-07-08T14:36:23.742Z,30.20
2018-07-08T14:38:53.089Z,29.54
2018-07-08T14:41:21.940Z,28.67
2018-07-08T14:43:50.720Z,28.48
2018-07-08T14:46:19.556Z,28.78
2018-07-08T14:48:48.367Z,29.67
2018-07-08T14:51:17.254Z,28.59
2018-07-08T14:53:46.858Z,28.20
2018-07-08T14:56:16.563Z,28.12
2018-07-08T14:58:45.345Z,27.44
2018-07-08T15:01:14.130Z,27.76
2018-07-08T15:03:42.914Z,28.47
2018-07-08T15:06:11.810Z,27.39
2018-07-08T15:08:41.755Z,27.39
2018-07-08T15:11:10.515Z,27.05
2018-07-08T15:13:40.134Z,26.81
2018-07-08T15:16:10.088Z,26.78
2018-07-08T15:18:39.639Z,27.65
2018-07-08T15:21:09.341Z,26.62
2018-07-08T15:23:39.054Z,27.76
2018-07-08T15:26:07.877Z,26.72
2018-07-08T15:28:37.560Z,27.71
2018-07-08T15:31:07.276Z,25.94
2018-07-08T15:33:37.090Z,26.23
2018-07-08T15:36:10.962Z,24.75
2018-07-08T15:38:40.647Z,24.46
2018-07-08T15:41:09.429Z,22.71
2018-07-08T15:43:42.819Z,22.44
2018-07-08T15:46:11.540Z,21.03
2018-07-08T15:48:40.482Z,20.98
2018-07-08T15:51:09.291Z,20.82
2018-07-08T15:53:39.486Z,20.37
2018-07-08T15:56:09.012Z,20.38
2018-07-08T15:58:37.794Z,18.99
2018-07-08T16:01:06.743Z,19.35
2018-07-08T16:03:36.482Z,19.13
2018-07-08T16:06:06.435Z,19.17
2018-07-08T16:08:36.975Z,19.50
2018-07-08T16:11:07.625Z,19.33
2018-07-08T16:13:38.007Z,19.83
2018-07-08T16:16:08.398Z,18.79
2018-07-08T16:18:38.814Z,18.58
2018-07-08T16:21:07.524Z,18.26
2018-07-08T16:23:37.644Z,18.77
2018-07-08T16:26:07.301Z,17.60
2018-07-08T16:28:36.486Z,17.21
2018-07-08T16:31:06.625Z,17.40
2018-07-08T16:33:35.882Z,18.29
2018-07-08T16:36:05.043Z,19.75
2018-07-08T16:38:35.097Z,18.79
2018-07-08T16:41:04.156Z,18.63
2018-07-08T16:43:32.914Z,18.29
2018-07-08T16:46:01.769Z,18.80
2018-07-08T16:48:30.589Z,18.55
2018-07-08T16:50:59.489Z,18.52
2018-07-08T16:53:29.146Z,18.71
2018-07-08T16:55:58.562Z,18.43
2018-07-08T16:58:27.350Z,17.90
2018-07-08T17:00:56.618Z,17.38
2018-07-08T17:03:25.413Z,17.53
2018-07-08T17:05:54.738Z,17.09
2018-07-08T17:08:24.250Z,16.99
2018-07-08T17:10:53.135Z,16.62
2018-07-08T17:13:22.018Z,15.99
2018-07-08T17:15:51.689Z,16.41
2018-07-08T17:18:21.530Z,16.81
2018-07-08T17:20:50.379Z,16.53
2018-07-08T17:23:20.048Z,15.78
2018-07-08T17:25:49.139Z,15.63
2018-07-08T17:30:47.441Z,15.55
2018-07-08T17:33:17.042Z,16.34
2018-07-08T17:35:45.798Z,15.86
2018-07-08T17:38:15.960Z,15.70
2018-07-08T17:40:44.758Z,15.92
2018-07-08T17:43:13.523Z,15.69
2018-07-08T17:45:42.378Z,16.38
2018-07-08T17:48:11.182Z,16.48
2018-07-08T17:50:41.698Z,16.66
2018-07-08T17:53:11.210Z,17.16
2018-07-08T17:55:40.906Z,16.69
2018-07-08T17:58:09.667Z,17.12
2018-07-08T18:00:38.564Z,17.69
2018-07-08T18:03:07.566Z,18.66
2018-07-08T18:05:36.735Z,17.73
2018-07-08T18:08:07.476Z,17.89
2018-07-08T18:10:38.054Z,18.15
2018-07-08T18:13:07.203Z,18.75
2018-07-08T18:15:37.750Z,20.24
2018-07-08T18:18:08.402Z,17.82
2018-07-08T18:20:38.482Z,18.86
2018-07-08T18:23:07.990Z,18.48
2018-07-08T18:25:37.219Z,18.18
2018-07-08T18:28:06.476Z,18.31
2018-07-08T18:30:37.022Z,18.09
2018-07-08T18:33:07.514Z,19.32
2018-07-08T18:35:36.738Z,19.10
2018-07-08T18:38:06.518Z,18.68
2018-07-08T18:40:35.616Z,18.70
2018-07-08T18:43:04.696Z,19.12
2018-07-08T18:45:33.525Z,20.67
2018-07-08T18:48:02.416Z,21.88
2018-07-08T18:50:31.466Z,23.24
2018-07-08T18:53:01.514Z,24.04
2018-07-08T18:55:31.014Z,25.36
2018-07-08T18:58:00.559Z,24.35
2018-07-08T19:00:29.299Z,26.17
2018-07-08T19:02:58.070Z,27.17
2018-07-08T19:05:26.899Z,27.47
2018-07-08T19:07:56.528Z,27.22
2018-07-08T19:10:25.332Z,28.22
2018-07-08T19:12:54.138Z,29.33
2018-07-08T19:15:23.784Z,30.06
2018-07-08T19:17:53.194Z,30.57
2018-07-08T19:20:22.618Z,30.20
2018-07-08T19:22:52.182Z,31.19
2018-07-08T19:25:20.957Z,32.16
2018-07-08T19:27:49.811Z,31.89
2018-07-08T19:30:19.442Z,31.74
2018-07-08T19:32:48.864Z,33.02
2018-07-08T19:35:17.698Z,34.18
2018-07-08T19:37:47.047Z,34.35
2018-07-08T19:40:15.823Z,34.16
2018-07-08T19:42:44.663Z,35.67
2018-07-08T19:45:13.534Z,35.50
2018-07-08T19:47:42.271Z,35.53
2018-07-08T19:50:11.177Z,37.23
2018-07-08T19:52:40.815Z,37.14
2018-07-08T19:55:09.603Z,37.65
2018-07-08T19:57:39.123Z,37.49
2018-07-08T20:00:08.402Z,38.77
2018-07-08T20:02:37.378Z,38.56
2018-07-08T20:05:07.090Z,38.41
2018-07-08T20:07:37.713Z,38.93
2018-07-08T20:10:08.507Z,39.04
2018-07-08T20:12:37.510Z,39.66
2018-07-08T20:15:07.431Z,40.04
2018-07-08T20:17:37.495Z,41.35
2018-07-08T20:20:08.207Z,41.39
2018-07-08T20:22:38.652Z,41.16
2018-07-08T20:25:07.955Z,42.27
2018-07-08T20:27:37.106Z,41.83
2018-07-08T20:30:06.879Z,42.16
2018-07-08T20:32:36.694Z,40.98
2018-07-08T20:35:07.749Z,41.99
2018-07-08T20:37:36.009Z,43.33
2018-07-08T20:40:05.105Z,43.40
2018-07-08T20:42:33.999Z,45.05
2018-07-08T20:45:03.420Z,44.01
2018-07-08T20:47:32.323Z,44.27
2018-07-08T20:50:01.249Z,42.95
2018-07-08T20:52:30.771Z,43.22
2018-07-08T20:55:00.148Z,44.09
2018-07-08T20:57:29.716Z,43.01
2018-07-08T20:59:58.564Z,42.77
2018-07-08T21:02:27.341Z,44.72
2018-07-08T21:04:56.227Z,44.23
2018-07-08T21:07:25.622Z,45.02
2018-07-08T21:09:55.007Z,46.00
2018-07-08T21:12:23.911Z,45.90
2018-07-08T21:14:54.797Z,45.85
2018-07-08T21:17:24.275Z,45.99
2018-07-08T21:19:54.106Z,46.46
2018-07-08T21:22:23.592Z,46.88
2018-07-08T21:24:52.418Z,46.22
2018-07-08T21:27:21.244Z,46.69
2018-07-08T21:29:50.055Z,46.31
2018-07-08T21:32:19.538Z,46.76
2018-07-08T21:34:48.398Z,46.71
2018-07-08T21:37:18.176Z,47.59
2018-07-08T21:39:47.049Z,47.90
2018-07-08T21:42:15.922Z,47.42
2018-07-08T21:44:44.990Z,46.78
2018-07-08T21:47:13.836Z,46.94
2018-07-08T21:49:42.738Z,47.52
2018-07-08T21:52:12.557Z,47.67
2018-07-08T21:54:41.345Z,46.97
2018-07-08T21:57:10.935Z,47.22
2018-07-08T21:59:39.740Z,47.29
2018-07-08T22:02:20.856Z,47.16
2018-07-08T22:04:50.341Z,47.84
2018-07-08T22:07:28.761Z,48.00
2018-07-08T22:09:58.475Z,47.78
2018-07-08T22:12:28.377Z,47.78
2018-07-08T22:14:57.814Z,47.90
2018-07-08T22:17:27.464Z,48.53
2018-07-08T22:19:57.135Z,49.04
2018-07-08T22:22:27.389Z,48.18
2018-07-08T22:24:56.475Z,49.11
2018-07-08T22:27:25.350Z,49.61
2018-07-08T22:29:54.178Z,50.18
2018-07-08T22:32:23.604Z,50.71
2018-07-08T22:34:52.419Z,51.00
2018-07-08T22:37:22.388Z,50.64
2018-07-08T22:39:51.154Z,51.25
2018-07-08T22:42:19.956Z,51.23
2018-07-08T22:44:48.890Z,51.30
2018-07-08T22:47:17.710Z,51.83
2018-07-08T22:49:47.125Z,52.46
2018-07-08T22:52:16.831Z,53.37
2018-07-08T22:54:45.644Z,52.82
2018-07-08T22:57:15.303Z,54.04
2018-07-08T22:59:55.011Z,53.64
2018-07-08T23:02:45.508Z,52.92
2018-07-08T23:05:14.681Z,53.24
2018-07-08T23:07:45.101Z,53.60
2018-07-08T23:10:14.612Z,53.04
2018-07-08T23:12:43.867Z,53.57
2018-07-08T23:15:14.130Z,53.08
2018-07-08T23:17:45.752Z,54.32
2018-07-08T23:20:15.223Z,54.04
2018-07-08T23:22:55.480Z,53.29
2018-07-08T23:25:24.384Z,54.77
2018-07-08T23:27:53.206Z,54.58
2018-07-08T23:30:22.669Z,53.70
2018-07-08T23:32:52.646Z,54.77
2018-07-08T23:35:21.494Z,53.74
2018-07-08T23:37:51.096Z,54.49
2018-07-08T23:40:19.893Z,53.78
2018-07-08T23:42:48.690Z,53.84
2018-07-08T23:45:19.195Z,53.84
2018-07-08T23:47:48.111Z,53.64
2018-07-08T23:50:17.003Z,53.49
2018-07-08T23:52:46.842Z,52.31
2018-07-08T23:55:15.645Z,53.03
2018-07-08T23:57:45.045Z,53.66
